sensor_id;sensor_type;location;lat;lon;timestamp;temperature;humidity
9237;DHT22;24579;42.810;23.214;2022-07-29T00:01:15;19.10;99.90
9237;DHT22;24579;42.810;23.214;2022-07-29T00:03:42;19.10;99.90
9237;DHT22;24579;42.810;23.214;2022-07-29T00:06:18;18.60;99.90
9237;DHT22;24579;42.810;23.214;2022-07-29T00:08:52;18.40;99.90
9237;DHT22;24579;42.810;23.214;2022-07-29T00:11:22;18.60;99.90
9237;DHT22;24579;42.810;23.214;2022-07-29T00:13:54;19.00;99.90
9237;DHT22;24579;42.810;23.214;2022-07-29T00:16:26;18.60;99.90
9237;DHT22;24579;42.810;23.214;2022-07-29T00:18:56;18.90;99.90
9237;DHT22;24579;42.810;23.214;2022-07-29T00:21:26;19.20;99.90
9237;DHT22;24579;42.810;23.214;2022-07-29T00:23:55;19.40;99.90
9237;DHT22;24579;42.810;23.214;2022-07-29T00:26:30;19.30;99.90
9237;DHT22;24579;42.810;23.214;2022-07-29T00:29:07;19.00;99.90
9237;DHT22;24579;42.810;23.214;2022-07-29T00:31:36;18.70;99.90
9237;DHT22;24579;42.810;23.214;2022-07-29T00:34:03;18.80;99.90
9237;DHT22;24579;42.810;23.214;2022-07-29T00:36:53;18.70;99.90
9237;DHT22;24579;42.810;23.214;2022-07-29T00:39:19;18.80;99.90
9237;DHT22;24579;42.810;23.214;2022-07-29T00:41:50;19.00;99.90
9237;DHT22;24579;42.810;23.214;2022-07-29T00:44:20;18.90;99.90
9237;DHT22;24579;42.810;23.214;2022-07-29T00:46:49;18.60;99.90
9237;DHT22;24579;42.810;23.214;2022-07-29T00:49:16;18.80;99.90
9237;DHT22;24579;42.810;23.214;2022-07-29T00:51:43;18.90;99.90
9237;DHT22;24579;42.810;23.214;2022-07-29T00:54:14;19.10;99.90
9237;DHT22;24579;42.810;23.214;2022-07-29T00:56:42;19.30;99.90
9237;DHT22;24579;42.810;23.214;2022-07-29T00:59:12;19.30;99.90
9237;DHT22;24579;42.810;23.214;2022-07-29T01:01:42;19.40;99.90
9237;DHT22;24579;42.810;23.214;2022-07-29T01:04:15;19.50;99.90
9237;DHT22;24579;42.810;23.214;2022-07-29T01:06:54;19.60;99.90
9237;DHT22;24579;42.810;23.214;2022-07-29T01:09:23;19.60;99.90
9237;DHT22;24579;42.810;23.214;2022-07-29T01:11:56;19.50;99.90
9237;DHT22;24579;42.810;23.214;2022-07-29T01:14:26;19.60;99.90
9237;DHT22;24579;42.810;23.214;2022-07-29T01:17:00;19.60;99.90
9237;DHT22;24579;42.810;23.214;2022-07-29T01:19:48;19.60;99.90
9237;DHT22;24579;42.810;23.214;2022-07-29T01:22:31;19.60;99.90
9237;DHT22;24579;42.810;23.214;2022-07-29T01:25:17;19.60;99.90
9237;DHT22;24579;42.810;23.214;2022-07-29T01:28:06;19.50;99.90
9237;DHT22;24579;42.810;23.214;2022-07-29T01:30:42;19.50;99.90
9237;DHT22;24579;42.810;23.214;2022-07-29T01:33:17;19.50;99.90
9237;DHT22;24579;42.810;23.214;2022-07-29T01:36:02;19.50;99.90
9237;DHT22;24579;42.810;23.214;2022-07-29T01:38:36;19.40;99.90
9237;DHT22;24579;42.810;23.214;2022-07-29T01:41:10;19.40;99.90
9237;DHT22;24579;42.810;23.214;2022-07-29T01:43:42;19.20;99.90
9237;DHT22;24579;42.810;23.214;2022-07-29T01:46:15;19.00;99.90
9237;DHT22;24579;42.810;23.214;2022-07-29T01:48:48;18.60;99.90
9237;DHT22;24579;42.810;23.214;2022-07-29T01:51:33;18.50;99.90
9237;DHT22;24579;42.810;23.214;2022-07-29T01:54:06;18.30;99.90
9237;DHT22;24579;42.810;23.214;2022-07-29T01:56:36;18.30;99.90
9237;DHT22;24579;42.810;23.214;2022-07-29T01:59:11;18.10;99.90
9237;DHT22;24579;42.810;23.214;2022-07-29T02:01:57;18.10;99.90
9237;DHT22;24579;42.810;23.214;2022-07-29T02:04:30;18.10;99.90
9237;DHT22;24579;42.810;23.214;2022-07-29T02:07:02;18.00;99.90
9237;DHT22;24579;42.810;23.214;2022-07-29T02:09:32;18.30;99.90
9237;DHT22;24579;42.810;23.214;2022-07-29T02:12:00;18.30;99.90
9237;DHT22;24579;42.810;23.214;2022-07-29T02:14:38;18.20;99.90
9237;DHT22;24579;42.810;23.214;2022-07-29T02:17:11;18.20;99.90
9237;DHT22;24579;42.810;23.214;2022-07-29T02:19:39;18.30;99.90
9237;DHT22;24579;42.810;23.214;2022-07-29T02:22:08;18.60;99.90
9237;DHT22;24579;42.810;23.214;2022-07-29T02:24:40;18.90;99.90
9237;DHT22;24579;42.810;23.214;2022-07-29T02:27:12;18.90;99.90
9237;DHT22;24579;42.810;23.214;2022-07-29T02:29:39;18.80;99.90
9237;DHT22;24579;42.810;23.214;2022-07-29T02:32:17;18.70;99.90
9237;DHT22;24579;42.810;23.214;2022-07-29T02:34:46;18.50;99.90
9237;DHT22;24579;42.810;23.214;2022-07-29T02:37:16;18.40;99.90
9237;DHT22;24579;42.810;23.214;2022-07-29T02:39:48;18.40;99.90
9237;DHT22;24579;42.810;23.214;2022-07-29T02:42:19;18.50;99.90
9237;DHT22;24579;42.810;23.214;2022-07-29T02:44:51;18.70;99.90
9237;DHT22;24579;42.810;23.214;2022-07-29T02:47:22;18.80;99.90
9237;DHT22;24579;42.810;23.214;2022-07-29T02:49:57;18.80;99.90
9237;DHT22;24579;42.810;23.214;2022-07-29T02:52:41;18.90;99.90
9237;DHT22;24579;42.810;23.214;2022-07-29T02:55:33;18.90;99.90
9237;DHT22;24579;42.810;23.214;2022-07-29T02:58:10;18.90;99.90
9237;DHT22;24579;42.810;23.214;2022-07-29T03:00:49;18.90;99.90
9237;DHT22;24579;42.810;23.214;2022-07-29T03:03:28;18.70;99.90
9237;DHT22;24579;42.810;23.214;2022-07-29T03:06:03;18.60;99.90
9237;DHT22;24579;42.810;23.214;2022-07-29T03:08:32;18.70;99.90
9237;DHT22;24579;42.810;23.214;2022-07-29T03:11:05;18.50;99.90
9237;DHT22;24579;42.810;23.214;2022-07-29T03:13:36;18.70;99.90
9237;DHT22;24579;42.810;23.214;2022-07-29T03:16:05;18.80;99.90
9237;DHT22;24579;42.810;23.214;2022-07-29T03:18:38;18.90;99.90
9237;DHT22;24579;42.810;23.214;2022-07-29T03:21:08;19.00;99.90
9237;DHT22;24579;42.810;23.214;2022-07-29T03:23:35;18.90;99.90
9237;DHT22;24579;42.810;23.214;2022-07-29T03:26:02;18.80;99.90
9237;DHT22;24579;42.810;23.214;2022-07-29T03:28:33;18.80;99.90
9237;DHT22;24579;42.810;23.214;2022-07-29T03:31:03;18.60;99.90
9237;DHT22;24579;42.810;23.214;2022-07-29T03:33:30;18.60;99.90
9237;DHT22;24579;42.810;23.214;2022-07-29T03:35:59;18.70;99.90
9237;DHT22;24579;42.810;23.214;2022-07-29T03:38:30;18.70;99.90
9237;DHT22;24579;42.810;23.214;2022-07-29T03:41:06;18.70;99.90
9237;DHT22;24579;42.810;23.214;2022-07-29T03:43:38;18.70;99.90
9237;DHT22;24579;42.810;23.214;2022-07-29T03:46:07;18.70;99.90
9237;DHT22;24579;42.810;23.214;2022-07-29T03:48:42;18.60;99.90
9237;DHT22;24579;42.810;23.214;2022-07-29T03:51:13;18.60;99.90
9237;DHT22;24579;42.810;23.214;2022-07-29T03:53:46;18.70;99.90
9237;DHT22;24579;42.810;23.214;2022-07-29T03:56:27;18.70;99.90
9237;DHT22;24579;42.810;23.214;2022-07-29T03:58:58;18.70;99.90
9237;DHT22;24579;42.810;23.214;2022-07-29T04:01:27;18.60;99.90
9237;DHT22;24579;42.810;23.214;2022-07-29T04:04:07;18.80;99.90
9237;DHT22;24579;42.810;23.214;2022-07-29T04:06:46;19.00;99.90
9237;DHT22;24579;42.810;23.214;2022-07-29T04:09:19;19.20;99.90
9237;DHT22;24579;42.810;23.214;2022-07-29T04:11:49;19.30;99.90
9237;DHT22;24579;42.810;23.214;2022-07-29T04:14:19;19.10;99.90
9237;DHT22;24579;42.810;23.214;2022-07-29T04:16:46;19.20;99.90
9237;DHT22;24579;42.810;23.214;2022-07-29T04:19:16;19.40;99.90
9237;DHT22;24579;42.810;23.214;2022-07-29T04:21:53;19.60;99.90
9237;DHT22;24579;42.810;23.214;2022-07-29T04:24:23;19.70;99.90
9237;DHT22;24579;42.810;23.214;2022-07-29T04:26:51;19.80;99.90
9237;DHT22;24579;42.810;23.214;2022-07-29T04:29:24;19.80;99.90
9237;DHT22;24579;42.810;23.214;2022-07-29T04:31:55;19.80;99.90
9237;DHT22;24579;42.810;23.214;2022-07-29T04:34:23;19.70;99.90
9237;DHT22;24579;42.810;23.214;2022-07-29T04:36:58;19.50;99.90
9237;DHT22;24579;42.810;23.214;2022-07-29T04:39:33;19.40;99.90
9237;DHT22;24579;42.810;23.214;2022-07-29T04:42:01;19.50;99.90
9237;DHT22;24579;42.810;23.214;2022-07-29T04:44:30;19.60;99.90
9237;DHT22;24579;42.810;23.214;2022-07-29T04:47:20;19.20;99.90
9237;DHT22;24579;42.810;23.214;2022-07-29T04:49:47;19.10;99.90
9237;DHT22;24579;42.810;23.214;2022-07-29T04:52:17;19.10;99.90
9237;DHT22;24579;42.810;23.214;2022-07-29T04:54:46;19.00;99.90
9237;DHT22;24579;42.810;23.214;2022-07-29T04:57:22;19.00;99.90
9237;DHT22;24579;42.810;23.214;2022-07-29T04:59:53;19.00;99.90
9237;DHT22;24579;42.810;23.214;2022-07-29T05:02:25;19.20;99.90
9237;DHT22;24579;42.810;23.214;2022-07-29T05:05:08;19.30;99.90
9237;DHT22;24579;42.810;23.214;2022-07-29T05:07:45;19.20;99.90
9237;DHT22;24579;42.810;23.214;2022-07-29T05:10:22;19.40;99.90
9237;DHT22;24579;42.810;23.214;2022-07-29T05:12:56;19.60;99.90
9237;DHT22;24579;42.810;23.214;2022-07-29T05:15:29;19.70;99.90
9237;DHT22;24579;42.810;23.214;2022-07-29T05:18:04;20.00;99.90
9237;DHT22;24579;42.810;23.214;2022-07-29T05:20:31;20.00;99.90
9237;DHT22;24579;42.810;23.214;2022-07-29T05:23:05;19.80;99.90
9237;DHT22;24579;42.810;23.214;2022-07-29T05:25:32;19.90;99.90
9237;DHT22;24579;42.810;23.214;2022-07-29T05:28:05;19.40;99.90
9237;DHT22;24579;42.810;23.214;2022-07-29T05:30:39;19.50;99.90
9237;DHT22;24579;42.810;23.214;2022-07-29T05:33:11;19.50;99.90
9237;DHT22;24579;42.810;23.214;2022-07-29T05:35:44;19.60;99.90
9237;DHT22;24579;42.810;23.214;2022-07-29T05:38:37;19.80;99.90
9237;DHT22;24579;42.810;23.214;2022-07-29T05:41:08;20.10;99.90
9237;DHT22;24579;42.810;23.214;2022-07-29T05:43:50;20.40;99.90
9237;DHT22;24579;42.810;23.214;2022-07-29T05:46:25;20.40;99.90
9237;DHT22;24579;42.810;23.214;2022-07-29T05:48:56;20.60;99.90
9237;DHT22;24579;42.810;23.214;2022-07-29T05:51:34;20.60;99.90
9237;DHT22;24579;42.810;23.214;2022-07-29T05:54:04;21.10;99.90
9237;DHT22;24579;42.810;23.214;2022-07-29T05:56:36;21.30;99.90
9237;DHT22;24579;42.810;23.214;2022-07-29T05:59:09;21.20;99.90
9237;DHT22;24579;42.810;23.214;2022-07-29T06:01:51;21.10;99.90
9237;DHT22;24579;42.810;23.214;2022-07-29T06:04:28;20.90;99.90
9237;DHT22;24579;42.810;23.214;2022-07-29T06:06:58;20.90;99.90
9237;DHT22;24579;42.810;23.214;2022-07-29T06:09:28;20.90;99.90
9237;DHT22;24579;42.810;23.214;2022-07-29T06:12:01;21.00;99.90
9237;DHT22;24579;42.810;23.214;2022-07-29T06:14:34;21.30;99.90
9237;DHT22;24579;42.810;23.214;2022-07-29T06:17:12;21.70;99.90
9237;DHT22;24579;42.810;23.214;2022-07-29T06:19:46;22.20;99.90
9237;DHT22;24579;42.810;23.214;2022-07-29T06:22:24;22.40;99.90
9237;DHT22;24579;42.810;23.214;2022-07-29T06:24:57;22.70;99.90
9237;DHT22;24579;42.810;23.214;2022-07-29T06:27:34;22.50;99.90
9237;DHT22;24579;42.810;23.214;2022-07-29T06:30:03;22.20;99.90
9237;DHT22;24579;42.810;23.214;2022-07-29T06:32:32;22.50;99.90
9237;DHT22;24579;42.810;23.214;2022-07-29T07:39:09;26.10;92.90
9237;DHT22;24579;42.810;23.214;2022-07-29T07:41:36;26.50;91.10
9237;DHT22;24579;42.810;23.214;2022-07-29T07:44:03;26.60;86.80
9237;DHT22;24579;42.810;23.214;2022-07-29T07:46:30;26.70;84.70
9237;DHT22;24579;42.810;23.214;2022-07-29T07:48:57;26.80;83.00
9237;DHT22;24579;42.810;23.214;2022-07-29T07:51:24;26.60;80.30
9237;DHT22;24579;42.810;23.214;2022-07-29T07:53:51;26.50;80.60
9237;DHT22;24579;42.810;23.214;2022-07-29T07:56:20;26.60;79.90
9237;DHT22;24579;42.810;23.214;2022-07-29T07:58:47;26.90;80.30
9237;DHT22;24579;42.810;23.214;2022-07-29T08:01:14;27.20;78.00
9237;DHT22;24579;42.810;23.214;2022-07-29T08:03:44;27.40;78.30
9237;DHT22;24579;42.810;23.214;2022-07-29T08:06:11;27.40;77.40
9237;DHT22;24579;42.810;23.214;2022-07-29T08:08:38;27.70;77.70
9237;DHT22;24579;42.810;23.214;2022-07-29T08:11:05;27.90;76.80
9237;DHT22;24579;42.810;23.214;2022-07-29T08:13:33;28.00;76.80
9237;DHT22;24579;42.810;23.214;2022-07-29T08:16:00;28.00;75.60
9237;DHT22;24579;42.810;23.214;2022-07-29T08:18:36;28.20;75.70
9237;DHT22;24579;42.810;23.214;2022-07-29T08:21:03;28.40;73.50
9237;DHT22;24579;42.810;23.214;2022-07-29T08:23:30;28.40;72.50
9237;DHT22;24579;42.810;23.214;2022-07-29T08:26:04;28.60;72.50
9237;DHT22;24579;42.810;23.214;2022-07-29T08:28:31;29.00;71.20
9237;DHT22;24579;42.810;23.214;2022-07-29T08:30:59;29.00;71.00
9237;DHT22;24579;42.810;23.214;2022-07-29T08:33:26;29.10;69.30
9237;DHT22;24579;42.810;23.214;2022-07-29T08:35:53;29.20;68.40
9237;DHT22;24579;42.810;23.214;2022-07-29T08:38:20;28.70;67.60
9237;DHT22;24579;42.810;23.214;2022-07-29T08:40:47;29.00;67.90
9237;DHT22;24579;42.810;23.214;2022-07-29T08:43:14;29.40;67.00
9237;DHT22;24579;42.810;23.214;2022-07-29T08:45:43;29.50;66.10
9237;DHT22;24579;42.810;23.214;2022-07-29T08:48:14;29.60;65.80
9237;DHT22;24579;42.810;23.214;2022-07-29T08:53:32;29.90;64.20
9237;DHT22;24579;42.810;23.214;2022-07-29T08:56:00;29.90;63.70
9237;DHT22;24579;42.810;23.214;2022-07-29T08:58:32;30.20;62.40
9237;DHT22;24579;42.810;23.214;2022-07-29T09:01:01;30.20;61.10
9237;DHT22;24579;42.810;23.214;2022-07-29T09:03:32;30.20;61.80
9237;DHT22;24579;42.810;23.214;2022-07-29T09:06:01;30.60;62.10
9237;DHT22;24579;42.810;23.214;2022-07-29T09:08:28;30.40;59.20
9237;DHT22;24579;42.810;23.214;2022-07-29T09:10:57;30.30;60.30
9237;DHT22;24579;42.810;23.214;2022-07-29T09:13:25;30.70;59.30
9237;DHT22;24579;42.810;23.214;2022-07-29T09:15:52;31.00;58.90
9237;DHT22;24579;42.810;23.214;2022-07-29T09:18:38;30.80;58.90
9237;DHT22;24579;42.810;23.214;2022-07-29T09:21:07;30.70;57.80
9237;DHT22;24579;42.810;23.214;2022-07-29T09:24:00;31.10;59.40
9237;DHT22;24579;42.810;23.214;2022-07-29T09:26:28;30.90;57.80
9237;DHT22;24579;42.810;23.214;2022-07-29T09:28:56;30.40;57.70
9237;DHT22;24579;42.810;23.214;2022-07-29T09:31:32;30.40;59.60
9237;DHT22;24579;42.810;23.214;2022-07-29T09:34:01;31.40;58.40
9237;DHT22;24579;42.810;23.214;2022-07-29T09:36:29;31.60;56.90
9237;DHT22;24579;42.810;23.214;2022-07-29T09:39:00;31.40;56.90
9237;DHT22;24579;42.810;23.214;2022-07-29T09:41:28;30.80;56.80
9237;DHT22;24579;42.810;23.214;2022-07-29T09:43:56;30.90;58.30
9237;DHT22;24579;42.810;23.214;2022-07-29T09:46:24;31.70;58.30
9237;DHT22;24579;42.810;23.214;2022-07-29T09:49:09;32.10;56.00
9237;DHT22;24579;42.810;23.214;2022-07-29T09:51:36;32.40;54.80
9237;DHT22;24579;42.810;23.214;2022-07-29T09:54:21;32.00;54.70
9237;DHT22;24579;42.810;23.214;2022-07-29T09:56:48;31.50;54.80
9237;DHT22;24579;42.810;23.214;2022-07-29T09:59:16;32.00;56.30
9237;DHT22;24579;42.810;23.214;2022-07-29T10:01:43;32.50;55.40
9237;DHT22;24579;42.810;23.214;2022-07-29T10:04:11;32.80;55.00
9237;DHT22;24579;42.810;23.214;2022-07-29T10:06:57;32.50;52.50
9237;DHT22;24579;42.810;23.214;2022-07-29T10:09:24;32.70;52.60
9237;DHT22;24579;42.810;23.214;2022-07-29T10:12:04;32.50;51.80
9237;DHT22;24579;42.810;23.214;2022-07-29T10:14:32;32.20;53.20
9237;DHT22;24579;42.810;23.214;2022-07-29T10:16:59;32.70;53.80
9237;DHT22;24579;42.810;23.214;2022-07-29T10:19:28;33.00;51.50
9237;DHT22;24579;42.810;23.214;2022-07-29T10:21:57;32.90;50.60
9237;DHT22;24579;42.810;23.214;2022-07-29T10:24:25;33.00;49.50
9237;DHT22;24579;42.810;23.214;2022-07-29T10:26:54;33.20;49.20
9237;DHT22;24579;42.810;23.214;2022-07-29T10:29:21;33.40;48.90
9237;DHT22;24579;42.810;23.214;2022-07-29T10:31:56;32.90;48.70
9237;DHT22;24579;42.810;23.214;2022-07-29T10:34:32;33.20;49.30
9237;DHT22;24579;42.810;23.214;2022-07-29T10:37:08;33.90;48.60
9237;DHT22;24579;42.810;23.214;2022-07-29T10:39:46;34.20;47.70
9237;DHT22;24579;42.810;23.214;2022-07-29T10:42:18;34.30;47.80
9237;DHT22;24579;42.810;23.214;2022-07-29T10:44:47;34.20;48.00
9237;DHT22;24579;42.810;23.214;2022-07-29T10:47:20;34.30;47.60
9237;DHT22;24579;42.810;23.214;2022-07-29T10:50:00;34.30;49.00
9237;DHT22;24579;42.810;23.214;2022-07-29T10:52:53;34.70;46.90
9237;DHT22;24579;42.810;23.214;2022-07-29T10:55:32;34.20;46.30
9237;DHT22;24579;42.810;23.214;2022-07-29T10:58:13;34.30;46.30
9237;DHT22;24579;42.810;23.214;2022-07-29T11:00:40;34.50;46.50
9237;DHT22;24579;42.810;23.214;2022-07-29T11:03:07;34.80;45.50
9237;DHT22;24579;42.810;23.214;2022-07-29T11:05:55;34.80;44.80
9237;DHT22;24579;42.810;23.214;2022-07-29T11:08:24;34.90;46.20
9237;DHT22;24579;42.810;23.214;2022-07-29T11:10:53;34.80;45.10
9237;DHT22;24579;42.810;23.214;2022-07-29T11:13:48;34.50;44.40
9237;DHT22;24579;42.810;23.214;2022-07-29T11:16:17;34.80;44.90
9237;DHT22;24579;42.810;23.214;2022-07-29T11:19:19;34.70;44.20
9237;DHT22;24579;42.810;23.214;2022-07-29T11:21:47;34.40;44.30
9237;DHT22;24579;42.810;23.214;2022-07-29T11:24:18;35.20;44.60
9237;DHT22;24579;42.810;23.214;2022-07-29T11:27:09;35.80;42.70
9237;DHT22;24579;42.810;23.214;2022-07-29T11:29:40;35.80;43.30
9237;DHT22;24579;42.810;23.214;2022-07-29T11:32:12;36.00;42.50
9237;DHT22;24579;42.810;23.214;2022-07-29T11:34:40;35.90;42.70
9237;DHT22;24579;42.810;23.214;2022-07-29T11:37:22;36.30;41.60
9237;DHT22;24579;42.810;23.214;2022-07-29T11:40:08;36.40;41.90
9237;DHT22;24579;42.810;23.214;2022-07-29T11:42:41;36.20;43.20
9237;DHT22;24579;42.810;23.214;2022-07-29T11:45:10;36.40;43.00
9237;DHT22;24579;42.810;23.214;2022-07-29T11:47:40;36.70;42.40
9237;DHT22;24579;42.810;23.214;2022-07-29T11:50:10;37.00;41.10
9237;DHT22;24579;42.810;23.214;2022-07-29T11:52:40;36.60;40.90
9237;DHT22;24579;42.810;23.214;2022-07-29T11:55:11;36.20;41.60
9237;DHT22;24579;42.810;23.214;2022-07-29T11:57:46;35.90;41.40
9237;DHT22;24579;42.810;23.214;2022-07-29T12:00:22;36.50;41.60
9237;DHT22;24579;42.810;23.214;2022-07-29T12:02:49;36.80;40.30
9237;DHT22;24579;42.810;23.214;2022-07-29T12:05:17;36.90;40.80
9237;DHT22;24579;42.810;23.214;2022-07-29T12:07:46;37.20;40.90
9237;DHT22;24579;42.810;23.214;2022-07-29T12:10:14;37.60;40.80
9237;DHT22;24579;42.810;23.214;2022-07-29T12:12:41;37.30;40.20
9237;DHT22;24579;42.810;23.214;2022-07-29T12:15:15;37.30;39.80
9237;DHT22;24579;42.810;23.214;2022-07-29T12:17:46;36.80;40.00
9237;DHT22;24579;42.810;23.214;2022-07-29T12:20:22;36.90;40.30
9237;DHT22;24579;42.810;23.214;2022-07-29T12:22:51;37.50;39.60
9237;DHT22;24579;42.810;23.214;2022-07-29T12:25:19;37.00;38.40
9237;DHT22;24579;42.810;23.214;2022-07-29T12:27:47;37.10;40.10
9237;DHT22;24579;42.810;23.214;2022-07-29T12:30:38;37.40;40.80
9237;DHT22;24579;42.810;23.214;2022-07-29T12:33:12;37.40;40.00
9237;DHT22;24579;42.810;23.214;2022-07-29T12:35:40;37.80;39.80
9237;DHT22;24579;42.810;23.214;2022-07-29T12:38:11;37.80;38.60
9237;DHT22;24579;42.810;23.214;2022-07-29T12:40:38;38.00;38.50
9237;DHT22;24579;42.810;23.214;2022-07-29T12:43:07;37.60;38.40
9237;DHT22;24579;42.810;23.214;2022-07-29T12:45:35;37.90;38.60
9237;DHT22;24579;42.810;23.214;2022-07-29T12:48:02;38.10;38.30
9237;DHT22;24579;42.810;23.214;2022-07-29T12:50:29;37.80;38.30
9237;DHT22;24579;42.810;23.214;2022-07-29T12:53:10;37.40;37.70
9237;DHT22;24579;42.810;23.214;2022-07-29T12:55:45;37.30;38.30
9237;DHT22;24579;42.810;23.214;2022-07-29T12:58:25;37.00;38.10
9237;DHT22;24579;42.810;23.214;2022-07-29T13:01:03;37.10;38.80
9237;DHT22;24579;42.810;23.214;2022-07-29T13:03:45;37.50;38.20
9237;DHT22;24579;42.810;23.214;2022-07-29T13:06:32;37.50;38.40
9237;DHT22;24579;42.810;23.214;2022-07-29T13:09:07;37.40;37.40
9237;DHT22;24579;42.810;23.214;2022-07-29T13:11:36;38.00;37.90
9237;DHT22;24579;42.810;23.214;2022-07-29T13:14:04;37.30;36.30
9237;DHT22;24579;42.810;23.214;2022-07-29T13:16:31;37.70;37.40
9237;DHT22;24579;42.810;23.214;2022-07-29T13:19:06;37.70;36.90
9237;DHT22;24579;42.810;23.214;2022-07-29T13:21:34;37.70;36.80
9237;DHT22;24579;42.810;23.214;2022-07-29T13:24:03;37.80;37.10
9237;DHT22;24579;42.810;23.214;2022-07-29T13:26:31;37.80;35.60
9237;DHT22;24579;42.810;23.214;2022-07-29T13:28:58;37.50;37.20
9237;DHT22;24579;42.810;23.214;2022-07-29T13:31:25;37.80;37.10
9237;DHT22;24579;42.810;23.214;2022-07-29T13:33:53;37.20;36.80
9237;DHT22;24579;42.810;23.214;2022-07-29T13:36:20;37.30;37.30
9237;DHT22;24579;42.810;23.214;2022-07-29T13:38:47;37.70;38.10
9237;DHT22;24579;42.810;23.214;2022-07-29T13:41:15;37.80;38.20
9237;DHT22;24579;42.810;23.214;2022-07-29T13:43:42;37.70;37.00
9237;DHT22;24579;42.810;23.214;2022-07-29T13:46:10;37.70;36.80
9237;DHT22;24579;42.810;23.214;2022-07-29T13:48:37;37.80;36.70
9237;DHT22;24579;42.810;23.214;2022-07-29T13:51:04;37.80;37.50
9237;DHT22;24579;42.810;23.214;2022-07-29T13:53:31;37.40;36.60
9237;DHT22;24579;42.810;23.214;2022-07-29T13:55:58;37.40;36.70
9237;DHT22;24579;42.810;23.214;2022-07-29T13:58:26;37.10;37.70
9237;DHT22;24579;42.810;23.214;2022-07-29T14:00:53;37.10;37.60
9237;DHT22;24579;42.810;23.214;2022-07-29T14:03:22;36.60;37.80
9237;DHT22;24579;42.810;23.214;2022-07-29T14:05:50;36.10;38.70
9237;DHT22;24579;42.810;23.214;2022-07-29T14:08:17;35.40;39.70
9237;DHT22;24579;42.810;23.214;2022-07-29T14:10:44;35.10;40.00
9237;DHT22;24579;42.810;23.214;2022-07-29T14:13:11;34.90;41.00
9237;DHT22;24579;42.810;23.214;2022-07-29T14:15:39;34.50;40.50
9237;DHT22;24579;42.810;23.214;2022-07-29T14:18:06;34.40;42.20
9237;DHT22;24579;42.810;23.214;2022-07-29T14:20:33;34.40;42.30
9237;DHT22;24579;42.810;23.214;2022-07-29T14:23:00;34.30;42.40
9237;DHT22;24579;42.810;23.214;2022-07-29T14:25:27;34.00;43.10
9237;DHT22;24579;42.810;23.214;2022-07-29T14:27:54;34.00;43.10
9237;DHT22;24579;42.810;23.214;2022-07-29T14:30:21;34.00;43.60
9237;DHT22;24579;42.810;23.214;2022-07-29T14:32:50;33.80;43.60
9237;DHT22;24579;42.810;23.214;2022-07-29T14:35:17;33.80;44.70
9237;DHT22;24579;42.810;23.214;2022-07-29T14:37:44;33.80;44.60
9237;DHT22;24579;42.810;23.214;2022-07-29T14:40:11;33.70;45.60
9237;DHT22;24579;42.810;23.214;2022-07-29T14:42:39;34.10;45.10
9237;DHT22;24579;42.810;23.214;2022-07-29T14:45:07;34.40;43.60
9237;DHT22;24579;42.810;23.214;2022-07-29T14:47:35;34.40;43.40
9237;DHT22;24579;42.810;23.214;2022-07-29T14:50:05;34.40;43.50
9237;DHT22;24579;42.810;23.214;2022-07-29T14:52:32;34.10;42.50
9237;DHT22;24579;42.810;23.214;2022-07-29T14:54:59;33.80;43.10
9237;DHT22;24579;42.810;23.214;2022-07-29T14:57:26;33.70;43.40
9237;DHT22;24579;42.810;23.214;2022-07-29T14:59:53;33.80;43.80
9237;DHT22;24579;42.810;23.214;2022-07-29T15:02:20;34.00;43.10
9237;DHT22;24579;42.810;23.214;2022-07-29T15:04:47;33.90;43.30
9237;DHT22;24579;42.810;23.214;2022-07-29T15:07:15;34.10;43.10
9237;DHT22;24579;42.810;23.214;2022-07-29T15:09:42;34.10;42.40
9237;DHT22;24579;42.810;23.214;2022-07-29T15:12:11;34.10;42.20
9237;DHT22;24579;42.810;23.214;2022-07-29T15:14:38;33.90;42.80
9237;DHT22;24579;42.810;23.214;2022-07-29T15:17:05;33.50;43.10
9237;DHT22;24579;42.810;23.214;2022-07-29T15:19:32;33.50;44.40
9237;DHT22;24579;42.810;23.214;2022-07-29T15:21:59;33.50;44.80
9237;DHT22;24579;42.810;23.214;2022-07-29T15:24:27;33.10;43.80
9237;DHT22;24579;42.810;23.214;2022-07-29T15:26:54;32.90;44.90
9237;DHT22;24579;42.810;23.214;2022-07-29T15:29:21;32.90;45.40
9237;DHT22;24579;42.810;23.214;2022-07-29T15:31:48;32.70;46.00
9237;DHT22;24579;42.810;23.214;2022-07-29T15:34:15;32.70;45.00
9237;DHT22;24579;42.810;23.214;2022-07-29T15:36:43;32.60;45.30
9237;DHT22;24579;42.810;23.214;2022-07-29T15:39:10;32.60;46.50
9237;DHT22;24579;42.810;23.214;2022-07-29T15:41:38;32.20;46.80
9237;DHT22;24579;42.810;23.214;2022-07-29T15:44:05;32.10;46.40
9237;DHT22;24579;42.810;23.214;2022-07-29T15:46:32;32.00;46.80
9237;DHT22;24579;42.810;23.214;2022-07-29T15:49:16;32.00;47.50
9237;DHT22;24579;42.810;23.214;2022-07-29T15:51:43;32.00;48.50
9237;DHT22;24579;42.810;23.214;2022-07-29T15:54:10;31.90;48.40
9237;DHT22;24579;42.810;23.214;2022-07-29T15:56:39;31.80;49.00
9237;DHT22;24579;42.810;23.214;2022-07-29T15:59:06;31.80;49.50
9237;DHT22;24579;42.810;23.214;2022-07-29T16:01:33;31.70;49.50
9237;DHT22;24579;42.810;23.214;2022-07-29T16:04:00;31.80;49.60
9237;DHT22;24579;42.810;23.214;2022-07-29T16:06:27;31.60;49.60
9237;DHT22;24579;42.810;23.214;2022-07-29T16:08:54;31.50;49.60
9237;DHT22;24579;42.810;23.214;2022-07-29T16:11:23;31.50;50.10
9237;DHT22;24579;42.810;23.214;2022-07-29T16:13:51;31.40;50.20
9237;DHT22;24579;42.810;23.214;2022-07-29T16:16:18;31.40;50.50
9237;DHT22;24579;42.810;23.214;2022-07-29T16:18:45;31.30;51.10
9237;DHT22;24579;42.810;23.214;2022-07-29T16:21:12;31.20;50.50
9237;DHT22;24579;42.810;23.214;2022-07-29T16:23:40;30.90;51.30
9237;DHT22;24579;42.810;23.214;2022-07-29T16:26:07;30.60;55.10
9237;DHT22;24579;42.810;23.214;2022-07-29T16:28:34;30.60;57.30
9237;DHT22;24579;42.810;23.214;2022-07-29T16:31:02;30.20;59.30
9237;DHT22;24579;42.810;23.214;2022-07-29T16:33:29;30.20;61.70
9237;DHT22;24579;42.810;23.214;2022-07-29T16:35:56;30.10;62.10
9237;DHT22;24579;42.810;23.214;2022-07-29T16:38:23;30.00;62.80
9237;DHT22;24579;42.810;23.214;2022-07-29T16:40:50;30.20;63.60
9237;DHT22;24579;42.810;23.214;2022-07-29T16:43:17;30.10;63.30
9237;DHT22;24579;42.810;23.214;2022-07-29T16:45:44;30.00;63.90
9237;DHT22;24579;42.810;23.214;2022-07-29T16:48:13;30.10;64.90
9237;DHT22;24579;42.810;23.214;2022-07-29T16:50:40;30.00;68.40
9237;DHT22;24579;42.810;23.214;2022-07-29T16:53:08;30.40;65.00
9237;DHT22;24579;42.810;23.214;2022-07-29T16:55:35;30.20;64.80
9237;DHT22;24579;42.810;23.214;2022-07-29T16:58:02;30.20;65.40
9237;DHT22;24579;42.810;23.214;2022-07-29T17:00:29;30.20;65.30
9237;DHT22;24579;42.810;23.214;2022-07-29T17:02:56;30.10;65.70